Allendale, California
Current Conditions -  °F | °C
As of 1:53 PM on Monday 20 Oct 2014 (Local Time) from KVCB Reporting Station
Overcast Overcast  
Wind Chill: 71°   Ceiling: 4900
Heat Index: 71°   Visibility: 10mi
Dew Point: 49°   Wind: 9mph
Humidity: 45%   Direction: 210°SSW
Pressure: 29.94"   Gusts: 16mph
Location:  38.4195°N, 122.026°W
Report Text: KVCB 202053Z AUTO 21008G14KT 10SM OVC049 22/09 A2994 RMK AO2 SLP139 T02170094 50000 TSNO
Loading
Personal Weather Stations






























Interactive Weather Map
Tropical Storm Tracking
New forecast layout! Learn more

10-Day Weather Forecast

Advertisements
Track Severe Weather on mobile